Time;durP1;ratioP1;P1;durP2;ratioP2;P2;SDS_P1;SDS_P2;PMS_P1;PMS_P2;Temp;Humidity;BMP_temperature;BMP_pressure;BME280_temperature;BME280_humidity;BME280_pressure;Samples;Min_cycle;Max_cycle;Signal;HPM_P1;HPM_P2
2023/03/13 00:00:11;;;;;;;21.73;5.15;;;9.00;99.90;;;;;;4971648;28;20046;-89
2023/03/13 00:02:37;;;;;;;24.67;4.70;;;8.40;99.90;;;;;;4987890;28;20054;-89
2023/03/13 00:05:03;;;;;;;20.75;5.28;;;8.30;99.90;;;;;;4971995;28;20104;-87
2023/03/13 00:07:28;;;;;;;24.63;4.65;;;8.40;99.90;;;;;;4987895;28;20133;-89
2023/03/13 00:09:54;;;;;;;23.92;5.88;;;8.40;99.90;;;;;;4972855;28;20093;-88
2023/03/13 00:12:19;;;;;;;24.55;5.35;;;8.40;99.90;;;;;;4987643;28;20051;-89
2023/03/13 00:14:45;;;;;;;19.77;4.75;;;8.40;99.90;;;;;;4972737;28;20041;-89
2023/03/13 00:17:10;;;;;;;20.17;4.13;;;8.70;99.90;;;;;;4972641;28;20038;-89
2023/03/13 00:19:36;;;;;;;26.58;4.90;;;8.40;99.90;;;;;;4972655;28;20093;-88
2023/03/13 00:22:02;;;;;;;17.33;4.20;;;8.30;99.90;;;;;;4972120;28;20469;-90
2023/03/13 00:24:27;;;;;;;22.55;4.97;;;8.30;99.90;;;;;;4964845;28;20042;-90
2023/03/13 00:26:54;;;;;;;25.90;4.88;;;8.30;99.90;;;;;;4965928;28;20043;-89
2023/03/13 00:29:20;;;;;;;19.48;6.07;;;8.30;99.90;;;;;;4972022;28;20053;-89
2023/03/13 00:31:45;;;;;;;22.08;5.07;;;8.30;99.90;;;;;;4970268;28;20409;-89
2023/03/13 00:34:11;;;;;;;27.27;5.38;;;8.20;99.90;;;;;;4970341;28;20101;-88
2023/03/13 00:36:36;;;;;;;27.90;5.00;;;8.20;99.90;;;;;;4970478;28;20513;-90
2023/03/13 00:39:04;;;;;;;20.45;5.22;;;8.20;99.90;;;;;;4971481;28;20485;-90
2023/03/13 00:41:31;;;;;;;23.17;5.30;;;8.20;99.90;;;;;;4968927;28;20050;-90
2023/03/13 00:43:57;;;;;;;20.67;4.93;;;8.30;99.90;;;;;;4971344;28;20043;-90
2023/03/13 00:46:27;;;;;;;19.33;5.03;;;8.20;99.90;;;;;;4966734;28;20054;-89
2023/03/13 00:48:53;;;;;;;21.70;5.55;;;8.20;99.90;;;;;;4968899;28;20059;-89
2023/03/13 00:51:20;;;;;;;17.95;5.70;;;8.20;99.90;;;;;;4962051;28;20050;-89
2023/03/13 00:53:49;;;;;;;31.30;5.65;;;8.10;99.90;;;;;;4969214;28;20049;-88
2023/03/13 00:56:16;;;;;;;22.30;4.78;;;8.10;99.90;;;;;;4987730;28;20047;-89
2023/03/13 00:58:44;;;;;;;24.55;5.57;;;8.20;99.90;;;;;;4959722;28;20058;-90
2023/03/13 01:01:17;;;;;;;18.77;4.68;;;8.10;99.90;;;;;;4960505;28;20049;-90
2023/03/13 01:03:55;;;;;;;23.02;4.68;;;8.10;99.90;;;;;;4986435;28;20062;-89
2023/03/13 01:06:24;;;;;;;26.08;4.88;;;8.10;99.90;;;;;;4968710;28;20062;-89
2023/03/13 01:08:50;;;;;;;18.35;4.63;;;8.10;99.90;;;;;;4984728;28;20050;-90
2023/03/13 01:11:19;;;;;;;21.65;4.32;;;8.20;99.90;;;;;;4987480;28;20064;-88
2023/03/13 01:13:46;;;;;;;19.55;4.40;;;8.10;99.90;;;;;;4972009;28;20431;-90
2023/03/13 01:16:18;;;;;;;20.40;4.47;;;8.10;99.90;;;;;;4968655;28;20057;-89
2023/03/13 01:18:46;;;;;;;19.42;4.85;;;8.10;99.90;;;;;;4953166;28;20100;-89
2023/03/13 01:21:13;;;;;;;21.77;5.22;;;8.20;99.90;;;;;;4973261;28;20478;-90
2023/03/13 01:23:38;;;;;;;20.02;4.47;;;8.10;99.90;;;;;;4982330;28;20498;-90
2023/03/13 01:26:06;;;;;;;19.02;5.15;;;8.20;99.90;;;;;;4981426;28;20046;-90
2023/03/13 01:28:32;;;;;;;28.67;5.75;;;8.20;99.90;;;;;;4968359;28;20054;-89
2023/03/13 01:30:58;;;;;;;16.05;4.85;;;8.10;99.90;;;;;;4966108;28;20108;-86
2023/03/13 01:33:24;;;;;;;18.50;4.97;;;8.10;99.90;;;;;;4987070;28;20038;-90
2023/03/13 01:35:50;;;;;;;19.30;5.05;;;8.20;99.90;;;;;;4987807;28;20050;-89
2023/03/13 01:38:15;;;;;;;20.35;5.07;;;8.40;99.90;;;;;;4988547;28;20038;-90
2023/03/13 01:40:44;;;;;;;19.00;5.25;;;8.20;99.90;;;;;;4986276;28;20046;-90
2023/03/13 01:43:26;;;;;;;16.33;4.25;;;8.20;99.90;;;;;;4988173;28;20042;-89
2023/03/13 01:45:59;;;;;;;18.08;4.60;;;8.20;99.90;;;;;;4990841;28;20081;-89
2023/03/13 01:48:30;;;;;;;20.42;5.55;;;8.20;99.90;;;;;;4988219;28;20054;-90
2023/03/13 01:50:58;;;;;;;21.00;5.03;;;7.70;99.90;;;;;;4987307;28;20496;-89
2023/03/13 01:53:25;;;;;;;15.70;4.75;;;8.20;99.90;;;;;;4956182;28;20055;-89
2023/03/13 01:55:52;;;;;;;20.80;5.07;;;8.20;99.90;;;;;;4964015;28;20291;-89
2023/03/13 01:58:18;;;;;;;25.20;5.68;;;8.20;99.90;;;;;;4990374;28;20569;-89
2023/03/13 02:00:45;;;;;;;17.42;4.55;;;8.30;99.90;;;;;;4974761;28;20050;-88
2023/03/13 02:03:16;;;;;;;20.25;5.38;;;8.30;99.90;;;;;;4974006;28;20053;-89
2023/03/13 02:05:44;;;;;;;19.98;5.32;;;8.30;99.90;;;;;;4973630;28;20133;-90
2023/03/13 02:08:17;;;;;;;18.77;4.97;;;8.30;99.90;;;;;;4974949;28;20124;-90
2023/03/13 02:10:54;;;;;;;22.35;4.97;;;8.30;99.90;;;;;;4974519;28;20051;-90
2023/03/13 02:13:21;;;;;;;21.65;5.90;;;8.30;99.90;;;;;;4973454;28;20129;-90
2023/03/13 02:15:47;;;;;;;25.33;4.97;;;9.10;99.90;;;;;;4974449;28;20049;-90
2023/03/13 02:18:15;;;;;;;14.18;4.40;;;8.30;99.90;;;;;;4973945;28;20046;-90
2023/03/13 02:20:40;;;;;;;20.88;5.10;;;8.60;99.90;;;;;;4990819;28;20104;-90
2023/03/13 02:23:13;;;;;;;23.27;5.00;;;8.30;99.90;;;;;;4973028;28;20038;-89
2023/03/13 02:25:50;;;;;;;16.60;4.68;;;8.30;99.90;;;;;;4970853;28;20351;-88
2023/03/13 02:28:32;;;;;;;17.08;4.85;;;8.30;99.90;;;;;;4973172;28;20058;-90
2023/03/13 02:30:58;;;;;;;15.68;4.43;;;8.40;99.90;;;;;;4973392;28;20049;-88
2023/03/13 02:33:48;;;;;;;16.73;4.53;;;8.30;99.90;;;;;;4986938;28;20046;-89
2023/03/13 02:36:31;;;;;;;14.80;4.05;;;8.30;99.90;;;;;;4989916;28;20046;-89
2023/03/13 02:39:08;;;;;;;14.00;4.22;;;8.70;99.90;;;;;;4988976;28;20125;-88
2023/03/13 02:41:41;;;;;;;15.05;4.13;;;8.40;99.90;;;;;;4980416;28;20768;-90
2023/03/13 02:44:40;;;;;;;15.60;4.68;;;8.40;99.90;;;;;;4987515;28;20065;-91
2023/03/13 02:47:08;;;;;;;12.88;3.85;;;8.40;99.90;;;;;;4991764;28;20077;-91
2023/03/13 02:49:35;;;;;;;11.73;3.80;;;8.40;99.90;;;;;;4990130;28;20038;-88
2023/03/13 02:52:22;;;;;;;11.60;3.72;;;8.50;99.90;;;;;;4988969;28;20116;-90
2023/03/13 02:54:52;;;;;;;11.57;3.45;;;8.50;99.90;;;;;;4989207;28;20381;-90
2023/03/13 02:57:17;;;;;;;7.97;3.45;;;8.50;99.90;;;;;;4973547;28;20096;-90
2023/03/13 02:59:43;;;;;;;9.32;3.25;;;8.50;99.90;;;;;;4973299;28;20038;-91
2023/03/13 03:02:23;;;;;;;12.13;3.30;;;8.60;99.90;;;;;;4963315;28;20421;-90
2023/03/13 03:04:49;;;;;;;11.23;3.17;;;8.70;99.90;;;;;;4970649;28;20129;-90
2023/03/13 03:07:22;;;;;;;5.68;3.13;;;9.30;99.90;;;;;;4974619;28;20456;-90
2023/03/13 03:09:54;;;;;;;11.63;3.55;;;9.00;99.90;;;;;;4974430;28;20097;-91
2023/03/13 03:12:19;;;;;;;8.07;2.78;;;8.70;99.90;;;;;;4973162;28;20543;-90
2023/03/13 03:14:56;;;;;;;5.65;2.95;;;8.70;99.90;;;;;;4974170;28;20042;-89
2023/03/13 03:17:30;;;;;;;5.53;2.72;;;8.70;99.90;;;;;;4973291;28;20042;-90
2023/03/13 03:20:00;;;;;;;7.82;2.92;;;8.70;99.90;;;;;;4973499;28;20043;-88
2023/03/13 03:22:32;;;;;;;8.30;3.47;;;8.70;99.90;;;;;;4972715;28;20061;-89
2023/03/13 03:25:01;;;;;;;4.45;2.75;;;8.80;99.90;;;;;;4973873;28;20034;-91
2023/03/13 03:27:26;;;;;;;7.38;3.15;;;8.80;99.90;;;;;;4972531;28;20046;-89
2023/03/13 03:29:52;;;;;;;9.95;3.63;;;9.10;99.90;;;;;;4990027;28;20054;-91
2023/03/13 03:32:18;;;;;;;5.85;3.45;;;9.20;99.90;;;;;;4973569;28;20073;-89
2023/03/13 03:34:43;;;;;;;9.10;3.13;;;8.90;99.90;;;;;;4974187;28;20153;-90
2023/03/13 03:37:11;;;;;;;6.50;3.42;;;8.90;99.90;;;;;;4972218;28;20084;-91
2023/03/13 03:39:37;;;;;;;9.85;3.45;;;8.90;99.90;;;;;;4974323;28;20046;-89
2023/03/13 03:42:03;;;;;;;5.68;3.45;;;9.00;99.90;;;;;;4972906;28;20432;-86
2023/03/13 03:44:29;;;;;;;10.73;3.58;;;9.00;99.90;;;;;;4974510;28;20531;-87
2023/03/13 03:46:54;;;;;;;8.02;3.90;;;9.10;99.90;;;;;;4969342;28;20072;-91
2023/03/13 03:49:20;;;;;;;6.85;3.47;;;9.10;99.90;;;;;;4974269;28;20046;-90
2023/03/13 03:51:47;;;;;;;9.23;3.38;;;9.10;99.90;;;;;;4973942;28;20088;-87
2023/03/13 03:54:12;;;;;;;6.82;3.72;;;9.10;99.90;;;;;;4973896;28;20042;-87
2023/03/13 03:56:38;;;;;;;7.22;3.72;;;9.20;99.90;;;;;;4990176;28;20072;-91
2023/03/13 03:59:04;;;;;;;8.38;3.78;;;9.40;99.90;;;;;;4989062;28;20050;-91
2023/03/13 04:01:29;;;;;;;7.57;3.55;;;9.20;99.90;;;;;;4972925;28;20409;-91
2023/03/13 04:03:55;;;;;;;9.43;3.78;;;9.30;99.90;;;;;;4989240;28;20047;-91
2023/03/13 04:06:21;;;;;;;7.80;3.30;;;9.30;99.90;;;;;;4973307;28;20153;-88
2023/03/13 04:08:48;;;;;;;9.20;3.60;;;9.40;99.90;;;;;;4988557;28;20042;-90
2023/03/13 04:11:14;;;;;;;5.68;3.60;;;9.30;99.90;;;;;;4972961;28;20046;-91
2023/03/13 04:13:39;;;;;;;9.23;3.50;;;9.40;99.90;;;;;;4972511;28;20488;-89
2023/03/13 04:16:09;;;;;;;5.93;3.08;;;9.50;99.90;;;;;;4971709;28;20074;-87
2023/03/13 04:18:35;;;;;;;5.45;3.53;;;9.50;99.90;;;;;;4969974;28;20042;-88
2023/03/13 04:21:02;;;;;;;3.70;3.08;;;9.50;99.90;;;;;;4972458;28;20455;-89
2023/03/13 04:23:33;;;;;;;6.90;3.67;;;9.60;99.90;;;;;;4966978;28;20042;-89
2023/03/13 04:25:59;;;;;;;7.05;3.53;;;9.60;99.90;;;;;;4962700;28;20518;-89
2023/03/13 04:28:25;;;;;;;6.07;3.35;;;9.70;99.90;;;;;;4968467;28;20046;-88
2023/03/13 04:30:51;;;;;;;6.57;4.10;;;10.00;99.90;;;;;;4972181;28;20049;-89
2023/03/13 04:33:17;;;;;;;6.13;3.78;;;9.70;99.90;;;;;;4988659;28;20058;-88
2023/03/13 04:35:43;;;;;;;7.45;3.97;;;9.70;99.90;;;;;;4973403;28;20366;-91
2023/03/13 04:38:09;;;;;;;5.90;4.00;;;10.20;99.90;;;;;;4971986;28;20046;-89
2023/03/13 04:40:34;;;;;;;5.85;4.32;;;9.50;99.90;;;;;;4971024;28;20046;-89
2023/03/13 04:43:00;;;;;;;6.72;4.22;;;10.10;99.90;;;;;;4972615;28;20069;-89
2023/03/13 04:45:26;;;;;;;6.13;4.53;;;10.00;99.90;;;;;;4972735;28;20133;-88
2023/03/13 04:47:52;;;;;;;8.15;4.63;;;10.00;99.90;;;;;;4988407;28;20082;-89
2023/03/13 04:50:18;;;;;;;6.63;4.78;;;10.00;99.90;;;;;;4987839;28;20086;-89
2023/03/13 04:52:43;;;;;;;10.35;5.30;;;10.10;99.90;;;;;;4988301;28;20050;-88
2023/03/13 04:55:10;;;;;;;9.80;4.57;;;10.10;99.90;;;;;;4971976;28;20034;-91
2023/03/13 04:57:36;;;;;;;8.10;5.03;;;10.20;99.90;;;;;;4971936;28;20088;-90
2023/03/13 05:00:04;;;;;;;10.77;4.90;;;10.30;99.90;;;;;;4970403;28;20100;-90
2023/03/13 05:02:29;;;;;;;12.02;5.55;;;10.30;99.90;;;;;;4971784;28;20053;-90
2023/03/13 05:04:55;;;;;;;9.48;5.20;;;10.30;99.90;;;;;;4971543;28;20397;-88
2023/03/13 05:07:20;;;;;;;7.38;4.85;;;10.30;99.90;;;;;;4986006;28;20042;-88
2023/03/13 05:09:46;;;;;;;9.75;5.05;;;10.30;99.90;;;;;;4952671;28;20047;-89
2023/03/13 05:12:12;;;;;;;7.30;5.03;;;10.30;99.90;;;;;;4963195;28;20038;-91
2023/03/13 05:14:37;;;;;;;8.77;5.70;;;10.40;99.90;;;;;;4986701;28;20049;-91
2023/03/13 05:17:03;;;;;;;8.75;5.70;;;10.40;99.90;;;;;;4973371;28;20092;-89
2023/03/13 05:19:28;;;;;;;8.18;5.30;;;11.10;99.90;;;;;;4975714;28;20397;-87
2023/03/13 05:21:54;;;;;;;9.95;5.60;;;10.50;99.90;;;;;;4986460;28;20051;-88
2023/03/13 05:24:20;;;;;;;10.27;5.90;;;11.30;99.90;;;;;;4990937;28;20049;-88
2023/03/13 05:26:45;;;;;;;7.93;5.53;;;10.60;99.90;;;;;;4976285;28;20080;-90
2023/03/13 05:29:11;;;;;;;10.50;5.53;;;10.70;99.90;;;;;;4973467;28;20132;-90
2023/03/13 05:31:36;;;;;;;12.45;5.65;;;11.20;99.90;;;;;;4977457;28;20185;-88
2023/03/13 05:34:02;;;;;;;7.85;5.65;;;11.10;99.90;;;;;;4974612;28;20042;-87
2023/03/13 05:36:28;;;;;;;7.63;5.40;;;10.90;99.90;;;;;;4974146;28;20048;-88
2023/03/13 05:38:53;;;;;;;8.95;5.22;;;10.90;99.90;;;;;;4974746;28;20104;-88
2023/03/13 05:41:19;;;;;;;10.18;5.30;;;10.90;99.90;;;;;;4987553;28;20494;-89
2023/03/13 05:43:44;;;;;;;7.75;5.35;;;10.90;99.90;;;;;;4962367;28;20053;-89
2023/03/13 05:46:10;;;;;;;7.38;5.10;;;11.00;99.90;;;;;;4973210;28;20120;-90
2023/03/13 05:48:36;;;;;;;7.78;4.63;;;11.00;99.90;;;;;;4973795;28;20144;-88
2023/03/13 05:51:01;;;;;;;6.60;4.95;;;11.90;99.90;;;;;;4975452;28;20042;-87
2023/03/13 05:53:27;;;;;;;7.00;4.60;;;10.70;99.90;;;;;;4969953;28;20115;-88
2023/03/13 05:55:52;;;;;;;8.30;5.53;;;11.00;99.90;;;;;;4974137;28;20405;-90
2023/03/13 05:58:18;;;;;;;7.30;4.60;;;11.10;99.90;;;;;;4974908;28;20086;-90
2023/03/13 06:00:44;;;;;;;9.45;4.90;;;11.10;99.90;;;;;;4975894;28;20133;-90
2023/03/13 06:03:09;;;;;;;6.75;4.80;;;11.10;99.90;;;;;;4973682;28;20500;-91
2023/03/13 06:05:35;;;;;;;8.25;4.80;;;11.60;99.90;;;;;;4974130;28;20050;-91
2023/03/13 06:08:01;;;;;;;6.90;5.00;;;11.10;99.90;;;;;;4974811;28;20058;-90
2023/03/13 06:10:28;;;;;;;8.43;4.70;;;11.10;99.90;;;;;;4974178;28;20400;-89
2023/03/13 06:12:54;;;;;;;7.53;5.30;;;12.00;99.90;;;;;;4975411;28;20034;-89
2023/03/13 06:15:21;;;;;;;9.18;5.82;;;11.50;99.90;;;;;;4971985;28;20568;-89
2023/03/13 06:17:49;;;;;;;8.65;4.82;;;11.30;99.90;;;;;;4973859;28;20041;-87
2023/03/13 06:20:15;;;;;;;7.90;4.88;;;11.20;99.90;;;;;;4974069;28;20386;-90
2023/03/13 06:22:40;;;;;;;8.90;5.90;;;11.30;99.90;;;;;;4970677;28;20101;-88
2023/03/13 06:25:08;;;;;;;8.40;5.45;;;11.30;99.90;;;;;;4973606;28;20477;-91
2023/03/13 06:27:34;;;;;;;7.60;5.18;;;11.30;99.90;;;;;;4973587;28;20050;-91
2023/03/13 06:30:00;;;;;;;6.57;5.15;;;11.40;99.90;;;;;;4970953;28;20800;-86
2023/03/13 06:32:27;;;;;;;9.93;5.40;;;11.40;99.90;;;;;;4971998;28;20045;-88
2023/03/13 06:34:53;;;;;;;10.23;5.50;;;11.40;99.90;;;;;;4990778;28;20051;-87
2023/03/13 06:37:18;;;;;;;10.93;5.43;;;11.40;99.90;;;;;;4958091;28;20047;-88
2023/03/13 06:39:44;;;;;;;10.23;5.68;;;11.50;99.90;;;;;;4987644;28;20042;-90
2023/03/13 06:42:10;;;;;;;9.05;4.80;;;12.10;99.90;;;;;;4972108;28;20058;-89
2023/03/13 06:44:36;;;;;;;11.48;5.45;;;11.50;99.90;;;;;;4971103;28;20173;-89
2023/03/13 06:47:02;;;;;;;11.63;5.40;;;11.50;99.90;;;;;;4970650;28;20049;-87
2023/03/13 06:49:28;;;;;;;12.00;5.13;;;11.50;99.90;;;;;;4977547;28;20055;-89
2023/03/13 06:51:57;;;;;;;8.07;4.68;;;11.50;99.90;;;;;;4986449;28;20129;-89
2023/03/13 06:54:23;;;;;;;8.30;4.68;;;11.60;99.90;;;;;;4979171;28;20125;-88
2023/03/13 06:56:48;;;;;;;9.43;4.45;;;11.70;99.90;;;;;;4963341;28;20118;-86
2023/03/13 06:59:16;;;;;;;9.13;4.70;;;11.70;99.90;;;;;;4970864;28;20527;-87
2023/03/13 07:01:42;;;;;;;8.10;4.20;;;11.70;99.90;;;;;;4973092;28;20121;-87
2023/03/13 07:04:12;;;;;;;10.30;5.30;;;11.70;99.90;;;;;;4973235;28;20046;-87
2023/03/13 07:06:37;;;;;;;6.00;4.00;;;11.70;99.90;;;;;;4988026;28;20046;-87
2023/03/13 07:09:04;;;;;;;7.95;3.85;;;11.80;99.90;;;;;;4973080;28;20057;-89
2023/03/13 07:11:30;;;;;;;9.18;3.90;;;11.70;99.90;;;;;;4973874;28;20046;-87
2023/03/13 07:13:56;;;;;;;9.23;4.40;;;11.80;99.90;;;;;;4972545;28;20054;-89
2023/03/13 07:16:22;;;;;;;7.15;4.32;;;12.50;99.90;;;;;;4970735;28;20165;-89
2023/03/13 07:18:48;;;;;;;9.57;4.57;;;11.90;99.90;;;;;;4972523;28;20085;-87
2023/03/13 07:21:13;;;;;;;10.77;4.75;;;11.80;99.90;;;;;;4973470;28;20117;-87
2023/03/13 07:23:40;;;;;;;9.05;3.47;;;11.80;99.90;;;;;;4970867;28;20054;-88
2023/03/13 07:26:09;;;;;;;7.82;4.07;;;11.90;99.90;;;;;;4973335;28;20062;-86
2023/03/13 07:28:35;;;;;;;8.80;4.85;;;11.90;99.90;;;;;;4971512;28;20567;-87
2023/03/13 07:31:07;;;;;;;6.25;3.65;;;11.90;99.90;;;;;;4973186;28;20080;-87
2023/03/13 07:33:33;;;;;;;5.57;3.40;;;12.00;99.90;;;;;;4988975;28;20042;-88
2023/03/13 07:35:59;;;;;;;8.35;3.58;;;12.00;99.90;;;;;;4972989;28;20043;-86
2023/03/13 07:38:24;;;;;;;7.60;3.53;;;12.10;99.90;;;;;;4970828;28;20042;-89
2023/03/13 07:40:52;;;;;;;7.05;3.28;;;12.30;99.90;;;;;;4962201;28;20042;-87
2023/03/13 07:43:18;;;;;;;7.68;3.25;;;12.20;99.90;;;;;;4986115;28;20043;-86
2023/03/13 07:45:58;;;;;;;4.40;2.78;;;12.20;99.90;;;;;;4972423;28;20058;-87
2023/03/13 07:48:27;;;;;;;7.68;3.60;;;12.20;99.90;;;;;;4988257;28;20054;-85
2023/03/13 07:50:57;;;;;;;5.93;2.80;;;12.20;99.90;;;;;;4987974;28;20077;-87
2023/03/13 07:53:22;;;;;;;8.85;2.95;;;12.20;99.90;;;;;;4987684;28;20666;-88
2023/03/13 07:56:06;;;;;;;5.72;2.75;;;12.40;99.90;;;;;;4971900;28;20050;-87
2023/03/13 07:58:39;;;;;;;6.95;3.10;;;12.30;99.90;;;;;;4971445;28;20116;-87
2023/03/13 08:01:11;;;;;;;5.97;2.97;;;12.30;99.90;;;;;;4987891;28;20086;-86
2023/03/13 08:03:38;;;;;;;5.47;3.10;;;12.30;99.90;;;;;;4987491;28;20505;-86
2023/03/13 08:06:07;;;;;;;6.22;3.25;;;12.20;99.90;;;;;;4986474;28;20048;-87
2023/03/13 08:08:33;;;;;;;5.57;2.83;;;12.10;99.90;;;;;;4980392;28;20035;-88
2023/03/13 08:11:04;;;;;;;5.32;3.55;;;12.00;99.90;;;;;;4986669;28;20061;-87
2023/03/13 08:13:30;;;;;;;6.70;2.80;;;11.90;99.90;;;;;;4986744;28;20403;-87
2023/03/13 08:16:10;;;;;;;5.60;2.95;;;11.80;99.90;;;;;;4987348;28;20501;-88
2023/03/13 08:18:38;;;;;;;5.65;3.40;;;11.70;99.90;;;;;;4984649;28;20424;-88
2023/03/13 08:21:06;;;;;;;6.65;3.22;;;11.70;99.90;;;;;;4988406;28;20042;-88
2023/03/13 08:23:32;;;;;;;7.35;3.35;;;11.70;99.90;;;;;;4987987;28;20042;-87
2023/03/13 08:26:12;;;;;;;4.82;3.13;;;11.60;99.90;;;;;;4987663;28;20042;-86
2023/03/13 08:28:39;;;;;;;5.88;2.70;;;11.80;99.90;;;;;;4969672;28;20065;-85
2023/03/13 08:31:12;;;;;;;6.10;3.35;;;11.90;99.90;;;;;;4985898;28;20054;-87
2023/03/13 08:33:38;;;;;;;;;;;11.70;99.90;;;;;;4987666;28;20046;-87
2023/03/13 08:36:27;;;;;;;4.50;2.88;;;11.70;99.90;;;;;;4986790;28;19933;-84
2023/03/13 08:38:56;;;;;;;5.30;2.80;;;11.80;99.90;;;;;;4987366;28;20061;-86
2023/03/13 08:41:24;;;;;;;5.22;3.45;;;11.80;99.90;;;;;;4988165;28;20070;-84
2023/03/13 08:43:54;;;;;;;4.60;3.30;;;11.80;99.90;;;;;;4987291;28;20766;-86
2023/03/13 08:46:21;;;;;;;6.43;3.00;;;11.80;99.90;;;;;;4988689;28;20042;-84
2023/03/13 08:48:51;;;;;;;6.07;3.65;;;11.90;99.90;;;;;;4986260;28;20046;-84
2023/03/13 08:51:17;;;;;;;5.85;3.00;;;11.90;99.90;;;;;;4992715;28;20084;-84
2023/03/13 08:53:43;;;;;;;5.35;2.92;;;11.90;99.90;;;;;;4991487;28;20517;-85
2023/03/13 08:56:15;;;;;;;14.05;3.97;;;12.00;99.90;;;;;;4990868;28;20053;-85
2023/03/13 08:58:41;;;;;;;6.70;3.30;;;12.00;99.90;;;;;;4992355;28;20540;-84
2023/03/13 09:01:09;;;;;;;6.00;2.80;;;12.10;99.90;;;;;;4992452;28;20121;-85
2023/03/13 09:03:36;;;;;;;4.88;2.80;;;12.20;99.90;;;;;;4989391;28;20513;-85
2023/03/13 09:06:02;;;;;;;4.38;2.85;;;12.40;99.90;;;;;;4990328;28;20129;-84
2023/03/13 09:08:29;;;;;;;4.35;2.78;;;12.60;99.90;;;;;;4988045;28;20129;-84
2023/03/13 09:10:59;;;;;;;4.40;2.35;;;12.80;99.90;;;;;;4990858;28;20046;-86
2023/03/13 09:13:27;;;;;;;5.32;2.83;;;12.80;99.90;;;;;;4989155;28;20129;-86
2023/03/13 09:15:57;;;;;;;4.55;2.20;;;13.30;99.90;;;;;;4989453;28;20440;-84
2023/03/13 09:18:23;;;;;;;4.22;2.10;;;12.90;99.90;;;;;;4989500;28;20416;-83
2023/03/13 09:20:48;;;;;;;5.25;2.38;;;12.90;99.90;;;;;;4991462;28;20054;-83
2023/03/13 09:23:14;;;;;;;4.85;2.35;;;12.80;99.90;;;;;;4990428;28;20046;-87
2023/03/13 09:25:40;;;;;;;2.80;1.90;;;12.90;99.90;;;;;;4991529;28;20456;-88
2023/03/13 09:28:06;;;;;;;4.40;2.25;;;12.90;99.90;;;;;;4991290;28;20623;-87
2023/03/13 09:30:31;;;;;;;6.43;2.70;;;12.90;99.90;;;;;;4990438;28;20038;-87
2023/03/13 09:32:57;;;;;;;6.68;2.13;;;12.80;99.90;;;;;;4988849;28;20042;-86
2023/03/13 09:35:22;;;;;;;3.90;2.80;;;12.80;99.90;;;;;;4990675;28;20042;-87
2023/03/13 09:37:48;;;;;;;2.55;2.10;;;12.80;99.90;;;;;;4989677;28;20042;-88
2023/03/13 09:40:21;;;;;;;10.88;3.28;;;12.80;99.90;;;;;;4982944;28;20505;-89
2023/03/13 09:42:50;;;;;;;3.40;2.00;;;12.80;99.90;;;;;;4969718;28;20074;-87
2023/03/13 09:45:37;;;;;;;3.53;1.92;;;13.10;99.90;;;;;;4971784;28;20153;-89
2023/03/13 09:48:17;;;;;;;4.10;1.98;;;12.80;99.90;;;;;;4972303;28;20093;-89
2023/03/13 09:50:51;;;;;;;2.83;1.95;;;12.90;99.90;;;;;;4979023;28;20061;-87
2023/03/13 09:53:43;;;;;;;3.17;2.00;;;13.00;99.90;;;;;;4986661;28;20063;-89
2023/03/13 09:56:19;;;;;;;5.13;1.70;;;13.00;99.90;;;;;;4988055;28;20401;-88
2023/03/13 09:58:55;;;;;;;3.35;1.73;;;13.50;99.90;;;;;;4989945;28;20044;-87
2023/03/13 10:01:28;;;;;;;3.08;1.45;;;13.60;99.90;;;;;;4988425;28;20034;-87
2023/03/13 10:04:22;;;;;;;4.82;2.00;;;13.60;99.90;;;;;;4989445;28;20057;-88
2023/03/13 10:06:48;;;;;;;4.55;2.00;;;13.70;99.90;;;;;;4972737;28;20080;-88
2023/03/13 10:09:27;;;;;;;3.60;1.77;;;14.20;99.90;;;;;;4969682;28;20417;-87
2023/03/13 10:12:19;;;;;;;3.90;1.60;;;13.90;99.90;;;;;;4970180;28;20173;-88
2023/03/13 10:15:26;;;;;;;6.43;2.30;;;14.00;99.90;;;;;;4971869;28;20046;-87
2023/03/13 10:17:52;;;;;;;5.93;2.05;;;14.10;99.90;;;;;;4988872;28;20409;-88
2023/03/13 10:20:33;;;;;;;3.88;2.22;;;14.00;99.90;;;;;;4971825;28;20073;-87
2023/03/13 10:23:06;;;;;;;6.40;1.90;;;14.00;99.90;;;;;;4990304;28;20042;-87
2023/03/13 10:25:37;;;;;;;6.78;2.45;;;14.00;99.90;;;;;;4989540;28;20049;-88
2023/03/13 10:28:05;;;;;;;5.40;2.20;;;14.00;99.90;;;;;;4990105;28;20374;-89
2023/03/13 10:30:35;;;;;;;6.05;1.95;;;13.90;99.90;;;;;;4973486;28;20057;-86
2023/03/13 10:33:07;;;;;;;9.77;2.20;;;13.90;99.90;;;;;;4987234;28;20481;-86
2023/03/13 10:35:38;;;;;;;7.95;2.15;;;13.90;99.90;;;;;;4973154;28;20126;-87
2023/03/13 10:38:18;;;;;;;5.95;2.42;;;13.90;99.90;;;;;;4989187;28;20061;-87
2023/03/13 10:41:21;;;;;;;4.53;1.98;;;13.90;99.90;;;;;;4987240;28;20080;-86
2023/03/13 10:43:53;;;;;;;7.32;2.10;;;14.00;99.90;;;;;;4989785;28;20456;-87
2023/03/13 10:46:28;;;;;;;6.80;2.50;;;14.60;99.90;;;;;;4989577;28;20081;-86
2023/03/13 10:48:55;;;;;;;8.45;2.67;;;14.00;99.90;;;;;;4989661;28;20038;-86
2023/03/13 10:51:24;;;;;;;5.82;2.25;;;14.00;99.90;;;;;;4989120;28;20050;-86
2023/03/13 10:53:50;;;;;;;7.75;1.88;;;13.90;99.90;;;;;;4971978;28;20046;-86
2023/03/13 10:56:25;;;;;;;7.55;2.30;;;14.70;99.90;;;;;;4989026;28;20081;-86
2023/03/13 10:58:52;;;;;;;5.22;2.10;;;14.00;99.90;;;;;;4983966;28;20061;-87
2023/03/13 11:01:20;;;;;;;3.85;1.90;;;14.50;99.90;;;;;;4989549;28;20113;-86
2023/03/13 11:03:48;;;;;;;3.70;1.92;;;14.10;99.90;;;;;;4989409;28;20086;-87
2023/03/13 11:06:26;;;;;;;3.45;2.05;;;14.20;99.90;;;;;;4987048;28;20512;-85
2023/03/13 11:09:18;;;;;;;7.38;2.15;;;14.40;99.90;;;;;;4988325;28;20038;-86
2023/03/13 11:12:05;;;;;;;4.93;2.00;;;14.50;99.90;;;;;;4988401;28;20365;-87
2023/03/13 11:14:31;;;;;;;4.30;1.67;;;14.50;99.90;;;;;;4983084;28;20062;-87
2023/03/13 11:17:18;;;;;;;4.18;1.90;;;14.70;99.90;;;;;;4969559;28;20042;-87
2023/03/13 11:19:51;;;;;;;3.88;1.70;;;14.70;99.90;;;;;;4983371;28;20137;-88
2023/03/13 11:22:35;;;;;;;4.60;1.65;;;15.10;99.90;;;;;;4971306;28;20085;-87
2023/03/13 11:25:21;;;;;;;3.25;1.90;;;14.90;99.90;;;;;;4970577;28;20138;-87
2023/03/13 11:27:57;;;;;;;4.13;1.60;;;15.00;99.90;;;;;;4984514;28;20055;-86
2023/03/13 11:30:34;;;;;;;5.30;1.50;;;15.10;99.90;;;;;;4980972;28;20108;-87
2023/03/13 11:33:21;;;;;;;5.55;2.00;;;15.40;99.90;;;;;;4985628;28;20038;-86
2023/03/13 11:36:27;;;;;;;2.58;1.15;;;15.60;99.90;;;;;;5145049;27;1272991;-86
2023/03/13 11:39:05;;;;;;;3.70;1.27;;;15.70;99.90;;;;;;5119790;27;20057;-84
2023/03/13 11:41:37;;;;;;;3.45;1.30;;;15.70;99.90;;;;;;5104414;27;20046;-85
2023/03/13 11:44:17;;;;;;;3.53;1.45;;;16.30;99.90;;;;;;5127611;27;20055;-85
2023/03/13 11:46:50;;;;;;;2.70;1.45;;;15.60;99.90;;;;;;5127036;27;20477;-86
2023/03/13 11:49:22;;;;;;;2.33;1.48;;;15.20;99.90;;;;;;5128396;27;20297;-86
2023/03/13 11:52:32;;;;;;;2.57;0.93;;;15.80;99.90;;;;;;5127102;27;20161;-87
2023/03/13 11:55:06;;;;;;;2.30;1.00;;;16.00;99.90;;;;;;5128041;27;20388;-86
2023/03/13 11:57:51;;;;;;;7.03;1.17;;;16.10;99.90;;;;;;5109517;27;20043;-87
2023/03/13 12:00:21;;;;;;;5.40;1.20;;;16.10;99.90;;;;;;5106753;28;20047;-86
2023/03/13 12:03:20;;;;;;;2.80;1.25;;;16.10;99.90;;;;;;5089483;28;20051;-88
2023/03/13 12:05:56;;;;;;;5.00;1.40;;;16.10;99.90;;;;;;5108129;28;20051;-88
2023/03/13 12:08:45;;;;;;;5.03;1.60;;;16.20;99.90;;;;;;5119333;27;20058;-86
2023/03/13 12:11:20;;;;;;;2.47;1.10;;;16.20;99.90;;;;;;5107236;28;20039;-87
2023/03/13 12:13:59;;;;;;;3.63;1.05;;;16.10;99.90;;;;;;5107310;28;20438;-87
2023/03/13 12:16:42;;;;;;;4.35;1.60;;;16.00;99.90;;;;;;5107600;28;20043;-85
2023/03/13 12:19:12;;;;;;;3.92;1.75;;;16.00;99.90;;;;;;5106839;28;20040;-84
2023/03/13 12:21:45;;;;;;;4.30;1.20;;;16.10;99.90;;;;;;5106202;28;20066;-86
2023/03/13 12:24:25;;;;;;;3.70;1.30;;;16.10;99.90;;;;;;5119588;27;20064;-87
2023/03/13 12:27:01;;;;;;;4.50;1.50;;;16.00;99.90;;;;;;5127276;27;20050;-86
2023/03/13 12:29:47;;;;;;;2.90;1.42;;;16.10;99.90;;;;;;5126833;27;20050;-86
2023/03/13 12:32:24;;;;;;;4.13;1.27;;;16.40;99.90;;;;;;5125331;27;20043;-88
2023/03/13 12:35:05;;;;;;;6.50;1.20;;;16.20;99.90;;;;;;5127350;27;20474;-86
2023/03/13 12:37:43;;;;;;;3.83;1.50;;;16.00;99.90;;;;;;5110287;27;20043;-85
2023/03/13 12:40:47;;;;;;;4.05;1.25;;;16.00;99.90;;;;;;5126626;27;20050;-84
2023/03/13 12:43:17;;;;;;;3.78;1.10;;;15.90;99.90;;;;;;5096427;27;20055;-86
2023/03/13 12:45:55;;;;;;;3.65;1.20;;;16.00;99.90;;;;;;5122081;27;20138;-85
2023/03/13 12:48:45;;;;;;;5.97;1.58;;;16.10;99.90;;;;;;5092380;28;20078;-84
2023/03/13 12:51:35;;;;;;;5.82;1.88;;;16.10;99.90;;;;;;5091481;28;20047;-86
2023/03/13 12:54:14;;;;;;;4.80;1.63;;;16.10;99.90;;;;;;5103895;27;20054;-85
2023/03/13 12:56:53;;;;;;;6.13;1.73;;;15.90;99.90;;;;;;5130735;27;20054;-83
2023/03/13 12:59:25;;;;;;;4.72;1.65;;;15.80;99.90;;;;;;5111514;27;20054;-87
2023/03/13 13:01:56;;;;;;;5.53;1.58;;;15.70;99.90;;;;;;5113546;27;20057;-86
2023/03/13 13:04:25;;;;;;;4.90;1.45;;;15.60;99.90;;;;;;5095550;27;20059;-88